Portada
METAR-TAF:

METAR-TAF

Aeropuertos :

Guilin, China

latitud: 25-20N, longitud: 110-18E, altitud: 166 m

Observación

El informe se hizo hace 1 hora y 3 minutos, a las 09:00 UTC
Viento 4 kt del este-sureste, variando entre este y sur
Temperatura 26°C
Humedad 42%
Presión 1012 hPa
Visibilidad 10 km o más
sin nubes por debajo de 1500 m y sin presencia de cumulonimbus.

METAR: ZGKL 230900Z 12002MPS 080V180 CAVOK 26/12 Q1012 NOSIG

Hora: 18:03 (10:03 UTC)

Pronóstico

El informe se hizo hace 6 horas y 46 minutos, a las 03:17 UTC
Pronóstico válido del 23 a las 06 UTC al 24 a las 06 UTC
Viento 6 kt del sur-sureste
Visibilidad 10 km o más
sin nubes por debajo de 1500 m y sin presencia de cumulonimbus.

TAF: ZGKL 230317Z 2306/2406 16003MPS CAVOK TX27/2308Z TN14/2322Z

Observaciones y pronósticos meteorológicos de más de 4000 aeropuertos (mensajes METAR y TAF).

Los puntos amarillos y rojos representan las estaciones disponibles.

Ponga el ratón en el punto deseado para ver el nombre de la estación.

Haga clic para ver las observaciones y los pronósticos meteorológicos.

Para cambiar el mapa : haga clic en los botones verdes con una cruz de color negro para hacer un zoom, en el botón verde con un guión para alejar o en las flechas verdes para mapas adyacentes.


METAR-TAF: